sensor_id;sensor_type;location;lat;lon;timestamp;P1;durP1;ratioP1;P2;durP2;ratioP2
25982;SDS011;13773;48.868;10.730;2023-07-02T00:01:52;3.30;;;2.90;;
25982;SDS011;13773;48.868;10.730;2023-07-02T00:04:17;5.40;;;2.97;;
25982;SDS011;13773;48.868;10.730;2023-07-02T00:06:48;3.60;;;3.30;;
25982;SDS011;13773;48.868;10.730;2023-07-02T00:09:14;4.00;;;3.10;;
25982;SDS011;13773;48.868;10.730;2023-07-02T00:11:42;3.50;;;3.13;;
25982;SDS011;13773;48.868;10.730;2023-07-02T00:14:09;4.87;;;3.37;;
25982;SDS011;13773;48.868;10.730;2023-07-02T00:16:35;3.60;;;3.00;;
25982;SDS011;13773;48.868;10.730;2023-07-02T00:19:02;3.70;;;3.40;;
25982;SDS011;13773;48.868;10.730;2023-07-02T00:21:28;3.90;;;3.37;;
25982;SDS011;13773;48.868;10.730;2023-07-02T00:23:54;3.50;;;3.20;;
25982;SDS011;13773;48.868;10.730;2023-07-02T00:26:24;3.37;;;3.03;;
25982;SDS011;13773;48.868;10.730;2023-07-02T00:28:51;3.40;;;3.10;;
25982;SDS011;13773;48.868;10.730;2023-07-02T00:31:18;3.67;;;3.37;;
25982;SDS011;13773;48.868;10.730;2023-07-02T00:33:43;3.43;;;3.13;;
25982;SDS011;13773;48.868;10.730;2023-07-02T00:36:10;4.13;;;3.30;;
25982;SDS011;13773;48.868;10.730;2023-07-02T00:38:42;4.90;;;3.50;;
25982;SDS011;13773;48.868;10.730;2023-07-02T00:41:10;4.23;;;3.37;;
25982;SDS011;13773;48.868;10.730;2023-07-02T00:43:36;3.77;;;3.33;;
25982;SDS011;13773;48.868;10.730;2023-07-02T00:46:19;3.30;;;3.00;;
25982;SDS011;13773;48.868;10.730;2023-07-02T00:48:49;3.73;;;3.43;;
25982;SDS011;13773;48.868;10.730;2023-07-02T00:51:16;3.37;;;3.03;;
25982;SDS011;13773;48.868;10.730;2023-07-02T00:53:48;6.17;;;4.03;;
25982;SDS011;13773;48.868;10.730;2023-07-02T00:56:15;4.23;;;3.53;;
25982;SDS011;13773;48.868;10.730;2023-07-02T00:58:41;6.07;;;3.47;;
25982;SDS011;13773;48.868;10.730;2023-07-02T01:01:20;4.43;;;3.60;;
25982;SDS011;13773;48.868;10.730;2023-07-02T01:03:56;3.97;;;3.67;;
25982;SDS011;13773;48.868;10.730;2023-07-02T01:06:27;5.10;;;4.60;;
25982;SDS011;13773;48.868;10.730;2023-07-02T01:08:54;6.13;;;4.53;;
25982;SDS011;13773;48.868;10.730;2023-07-02T01:11:22;5.73;;;5.10;;
25982;SDS011;13773;48.868;10.730;2023-07-02T01:13:55;6.93;;;5.17;;
25982;SDS011;13773;48.868;10.730;2023-07-02T01:16:27;5.73;;;5.03;;
25982;SDS011;13773;48.868;10.730;2023-07-02T01:18:55;8.20;;;5.47;;
25982;SDS011;13773;48.868;10.730;2023-07-02T01:21:23;6.70;;;5.77;;
25982;SDS011;13773;48.868;10.730;2023-07-02T01:23:50;5.80;;;5.10;;
25982;SDS011;13773;48.868;10.730;2023-07-02T01:26:16;6.43;;;5.43;;
25982;SDS011;13773;48.868;10.730;2023-07-02T01:28:42;7.70;;;5.60;;
25982;SDS011;13773;48.868;10.730;2023-07-02T01:31:07;7.13;;;5.73;;
25982;SDS011;13773;48.868;10.730;2023-07-02T01:33:33;5.97;;;5.47;;
25982;SDS011;13773;48.868;10.730;2023-07-02T01:35:59;5.70;;;5.20;;
25982;SDS011;13773;48.868;10.730;2023-07-02T01:38:24;7.27;;;5.17;;
25982;SDS011;13773;48.868;10.730;2023-07-02T01:40:50;6.13;;;5.30;;
25982;SDS011;13773;48.868;10.730;2023-07-02T01:43:17;6.80;;;5.30;;
25982;SDS011;13773;48.868;10.730;2023-07-02T01:45:43;6.17;;;5.13;;
25982;SDS011;13773;48.868;10.730;2023-07-02T01:48:08;6.33;;;5.70;;
25982;SDS011;13773;48.868;10.730;2023-07-02T01:50:34;7.50;;;5.03;;
25982;SDS011;13773;48.868;10.730;2023-07-02T01:53:00;5.53;;;4.80;;
25982;SDS011;13773;48.868;10.730;2023-07-02T01:55:25;6.27;;;5.17;;
25982;SDS011;13773;48.868;10.730;2023-07-02T01:57:52;6.07;;;5.47;;
25982;SDS011;13773;48.868;10.730;2023-07-02T02:00:18;6.00;;;4.73;;
25982;SDS011;13773;48.868;10.730;2023-07-02T02:02:44;5.67;;;5.10;;
25982;SDS011;13773;48.868;10.730;2023-07-02T02:05:10;9.50;;;5.00;;
25982;SDS011;13773;48.868;10.730;2023-07-02T02:07:36;5.43;;;4.93;;
25982;SDS011;13773;48.868;10.730;2023-07-02T02:10:02;6.33;;;5.30;;
25982;SDS011;13773;48.868;10.730;2023-07-02T02:12:29;6.53;;;5.40;;
25982;SDS011;13773;48.868;10.730;2023-07-02T02:14:55;5.83;;;5.27;;
25982;SDS011;13773;48.868;10.730;2023-07-02T02:17:21;7.27;;;5.43;;
25982;SDS011;13773;48.868;10.730;2023-07-02T02:19:48;5.60;;;5.03;;
25982;SDS011;13773;48.868;10.730;2023-07-02T02:22:14;8.03;;;5.43;;
25982;SDS011;13773;48.868;10.730;2023-07-02T02:24:42;7.10;;;5.13;;
25982;SDS011;13773;48.868;10.730;2023-07-02T02:27:08;7.83;;;5.33;;
25982;SDS011;13773;48.868;10.730;2023-07-02T02:29:34;9.13;;;5.43;;
25982;SDS011;13773;48.868;10.730;2023-07-02T02:31:59;7.80;;;5.80;;
25982;SDS011;13773;48.868;10.730;2023-07-02T02:34:25;7.27;;;5.03;;
25982;SDS011;13773;48.868;10.730;2023-07-02T02:36:51;6.23;;;5.60;;
25982;SDS011;13773;48.868;10.730;2023-07-02T02:39:17;6.70;;;5.40;;
25982;SDS011;13773;48.868;10.730;2023-07-02T02:41:42;8.17;;;5.53;;
25982;SDS011;13773;48.868;10.730;2023-07-02T02:44:10;7.83;;;5.60;;
25982;SDS011;13773;48.868;10.730;2023-07-02T02:46:35;5.37;;;4.87;;
25982;SDS011;13773;48.868;10.730;2023-07-02T02:49:01;6.40;;;5.03;;
25982;SDS011;13773;48.868;10.730;2023-07-02T02:51:27;7.97;;;4.93;;
25982;SDS011;13773;48.868;10.730;2023-07-02T02:53:52;7.17;;;5.40;;
25982;SDS011;13773;48.868;10.730;2023-07-02T02:56:18;6.37;;;4.87;;
25982;SDS011;13773;48.868;10.730;2023-07-02T02:58:43;6.93;;;5.33;;
25982;SDS011;13773;48.868;10.730;2023-07-02T03:01:09;7.57;;;5.70;;
25982;SDS011;13773;48.868;10.730;2023-07-02T03:03:39;7.13;;;5.27;;
25982;SDS011;13773;48.868;10.730;2023-07-02T03:06:09;6.60;;;5.47;;
25982;SDS011;13773;48.868;10.730;2023-07-02T03:08:36;8.57;;;5.93;;
25982;SDS011;13773;48.868;10.730;2023-07-02T03:11:01;6.57;;;5.73;;
25982;SDS011;13773;48.868;10.730;2023-07-02T03:13:27;6.73;;;6.03;;
25982;SDS011;13773;48.868;10.730;2023-07-02T03:15:53;8.67;;;6.13;;
25982;SDS011;13773;48.868;10.730;2023-07-02T03:18:19;7.73;;;6.00;;
25982;SDS011;13773;48.868;10.730;2023-07-02T03:20:44;6.40;;;5.80;;
25982;SDS011;13773;48.868;10.730;2023-07-02T03:23:12;6.83;;;6.10;;
25982;SDS011;13773;48.868;10.730;2023-07-02T03:25:37;6.53;;;5.53;;
25982;SDS011;13773;48.868;10.730;2023-07-02T03:28:03;7.87;;;6.33;;
25982;SDS011;13773;48.868;10.730;2023-07-02T03:30:29;7.63;;;6.50;;
25982;SDS011;13773;48.868;10.730;2023-07-02T03:32:56;13.13;;;6.90;;
25982;SDS011;13773;48.868;10.730;2023-07-02T03:35:22;8.03;;;7.20;;
25982;SDS011;13773;48.868;10.730;2023-07-02T03:37:48;8.13;;;6.87;;
25982;SDS011;13773;48.868;10.730;2023-07-02T03:40:13;9.43;;;6.57;;
25982;SDS011;13773;48.868;10.730;2023-07-02T03:42:39;8.33;;;5.80;;
25982;SDS011;13773;48.868;10.730;2023-07-02T03:45:05;7.83;;;5.60;;
25982;SDS011;13773;48.868;10.730;2023-07-02T03:47:32;6.50;;;5.80;;
25982;SDS011;13773;48.868;10.730;2023-07-02T03:49:57;6.70;;;5.73;;
25982;SDS011;13773;48.868;10.730;2023-07-02T03:52:23;6.27;;;5.27;;
25982;SDS011;13773;48.868;10.730;2023-07-02T03:54:49;6.60;;;5.27;;
25982;SDS011;13773;48.868;10.730;2023-07-02T03:57:14;6.70;;;5.47;;
25982;SDS011;13773;48.868;10.730;2023-07-02T03:59:40;6.00;;;5.33;;
25982;SDS011;13773;48.868;10.730;2023-07-02T04:02:06;6.40;;;4.80;;
25982;SDS011;13773;48.868;10.730;2023-07-02T04:04:32;6.03;;;5.00;;
25982;SDS011;13773;48.868;10.730;2023-07-02T04:06:57;5.53;;;4.87;;
25982;SDS011;13773;48.868;10.730;2023-07-02T04:09:23;5.70;;;5.00;;
25982;SDS011;13773;48.868;10.730;2023-07-02T04:11:49;5.27;;;4.77;;
25982;SDS011;13773;48.868;10.730;2023-07-02T04:14:14;4.90;;;4.40;;
25982;SDS011;13773;48.868;10.730;2023-07-02T04:16:40;5.03;;;4.23;;
25982;SDS011;13773;48.868;10.730;2023-07-02T04:19:12;5.50;;;5.00;;
25982;SDS011;13773;48.868;10.730;2023-07-02T04:21:39;5.27;;;4.77;;
25982;SDS011;13773;48.868;10.730;2023-07-02T04:24:05;9.57;;;5.13;;
25982;SDS011;13773;48.868;10.730;2023-07-02T04:26:31;5.13;;;4.70;;
25982;SDS011;13773;48.868;10.730;2023-07-02T04:28:56;5.20;;;4.33;;
25982;SDS011;13773;48.868;10.730;2023-07-02T04:31:24;5.97;;;4.87;;
25982;SDS011;13773;48.868;10.730;2023-07-02T04:33:50;6.30;;;4.80;;
25982;SDS011;13773;48.868;10.730;2023-07-02T04:36:16;6.60;;;4.50;;
25982;SDS011;13773;48.868;10.730;2023-07-02T04:38:42;4.50;;;4.10;;
25982;SDS011;13773;48.868;10.730;2023-07-02T04:41:07;5.30;;;4.53;;
25982;SDS011;13773;48.868;10.730;2023-07-02T04:43:36;5.80;;;4.87;;
25982;SDS011;13773;48.868;10.730;2023-07-02T04:46:03;4.93;;;4.40;;
25982;SDS011;13773;48.868;10.730;2023-07-02T04:48:32;5.20;;;4.43;;
25982;SDS011;13773;48.868;10.730;2023-07-02T04:50:58;5.57;;;4.70;;
25982;SDS011;13773;48.868;10.730;2023-07-02T04:53:24;5.10;;;4.27;;
25982;SDS011;13773;48.868;10.730;2023-07-02T04:55:49;6.10;;;4.60;;
25982;SDS011;13773;48.868;10.730;2023-07-02T04:58:15;5.60;;;4.33;;
25982;SDS011;13773;48.868;10.730;2023-07-02T05:00:41;7.50;;;4.83;;
25982;SDS011;13773;48.868;10.730;2023-07-02T05:03:07;6.47;;;5.13;;
25982;SDS011;13773;48.868;10.730;2023-07-02T05:05:32;6.40;;;4.47;;
25982;SDS011;13773;48.868;10.730;2023-07-02T05:07:58;6.50;;;5.00;;
25982;SDS011;13773;48.868;10.730;2023-07-02T05:10:24;4.47;;;4.03;;
25982;SDS011;13773;48.868;10.730;2023-07-02T05:12:49;6.07;;;5.00;;
25982;SDS011;13773;48.868;10.730;2023-07-02T05:15:15;5.80;;;5.03;;
25982;SDS011;13773;48.868;10.730;2023-07-02T05:17:41;6.60;;;5.00;;
25982;SDS011;13773;48.868;10.730;2023-07-02T05:20:07;6.27;;;4.87;;
25982;SDS011;13773;48.868;10.730;2023-07-02T05:22:33;5.93;;;4.50;;
25982;SDS011;13773;48.868;10.730;2023-07-02T05:24:59;6.80;;;4.53;;
25982;SDS011;13773;48.868;10.730;2023-07-02T05:27:29;5.57;;;4.33;;
25982;SDS011;13773;48.868;10.730;2023-07-02T05:29:55;5.87;;;4.43;;
25982;SDS011;13773;48.868;10.730;2023-07-02T05:32:21;8.50;;;4.90;;
25982;SDS011;13773;48.868;10.730;2023-07-02T05:34:46;7.03;;;4.70;;
25982;SDS011;13773;48.868;10.730;2023-07-02T05:37:12;7.60;;;4.93;;
25982;SDS011;13773;48.868;10.730;2023-07-02T05:39:38;8.50;;;5.13;;
25982;SDS011;13773;48.868;10.730;2023-07-02T05:42:03;9.50;;;6.03;;
25982;SDS011;13773;48.868;10.730;2023-07-02T05:44:30;9.87;;;6.33;;
25982;SDS011;13773;48.868;10.730;2023-07-02T05:46:56;7.87;;;7.03;;
25982;SDS011;13773;48.868;10.730;2023-07-02T05:49:22;13.30;;;7.60;;
25982;SDS011;13773;48.868;10.730;2023-07-02T05:51:47;12.47;;;8.20;;
25982;SDS011;13773;48.868;10.730;2023-07-02T05:54:13;11.33;;;8.17;;
25982;SDS011;13773;48.868;10.730;2023-07-02T05:56:39;14.43;;;8.67;;
25982;SDS011;13773;48.868;10.730;2023-07-02T05:59:04;11.37;;;8.60;;
25982;SDS011;13773;48.868;10.730;2023-07-02T06:01:30;18.57;;;9.97;;
25982;SDS011;13773;48.868;10.730;2023-07-02T06:03:56;12.40;;;8.83;;
25982;SDS011;13773;48.868;10.730;2023-07-02T06:06:22;11.03;;;8.27;;
25982;SDS011;13773;48.868;10.730;2023-07-02T06:08:49;12.77;;;8.87;;
25982;SDS011;13773;48.868;10.730;2023-07-02T06:11:15;10.67;;;7.77;;
25982;SDS011;13773;48.868;10.730;2023-07-02T06:13:41;10.40;;;7.10;;
25982;SDS011;13773;48.868;10.730;2023-07-02T06:16:07;9.10;;;7.53;;
25982;SDS011;13773;48.868;10.730;2023-07-02T06:18:33;12.53;;;7.80;;
25982;SDS011;13773;48.868;10.730;2023-07-02T06:20:59;10.40;;;7.67;;
25982;SDS011;13773;48.868;10.730;2023-07-02T06:23:25;11.67;;;7.07;;
25982;SDS011;13773;48.868;10.730;2023-07-02T06:25:50;10.20;;;6.40;;
25982;SDS011;13773;48.868;10.730;2023-07-02T06:28:24;10.37;;;7.10;;
25982;SDS011;13773;48.868;10.730;2023-07-02T06:30:50;12.13;;;7.87;;
25982;SDS011;13773;48.868;10.730;2023-07-02T06:33:16;11.77;;;8.17;;
25982;SDS011;13773;48.868;10.730;2023-07-02T06:35:43;9.67;;;7.50;;
25982;SDS011;13773;48.868;10.730;2023-07-02T06:38:09;11.20;;;7.17;;
25982;SDS011;13773;48.868;10.730;2023-07-02T06:40:34;9.03;;;6.97;;
25982;SDS011;13773;48.868;10.730;2023-07-02T06:43:00;9.50;;;6.73;;
25982;SDS011;13773;48.868;10.730;2023-07-02T06:45:26;8.77;;;7.40;;
25982;SDS011;13773;48.868;10.730;2023-07-02T06:47:51;10.93;;;7.67;;
25982;SDS011;13773;48.868;10.730;2023-07-02T06:50:17;9.77;;;7.43;;
25982;SDS011;13773;48.868;10.730;2023-07-02T06:52:43;8.90;;;7.07;;
25982;SDS011;13773;48.868;10.730;2023-07-02T06:55:10;9.93;;;7.53;;
25982;SDS011;13773;48.868;10.730;2023-07-02T06:57:41;10.93;;;7.37;;
25982;SDS011;13773;48.868;10.730;2023-07-02T07:00:09;9.27;;;7.07;;
25982;SDS011;13773;48.868;10.730;2023-07-02T07:02:35;9.43;;;7.27;;
25982;SDS011;13773;48.868;10.730;2023-07-02T07:05:00;8.90;;;6.93;;
25982;SDS011;13773;48.868;10.730;2023-07-02T07:07:26;11.03;;;6.97;;
25982;SDS011;13773;48.868;10.730;2023-07-02T07:09:53;9.60;;;7.00;;
25982;SDS011;13773;48.868;10.730;2023-07-02T07:12:22;8.93;;;6.30;;
25982;SDS011;13773;48.868;10.730;2023-07-02T07:14:49;8.57;;;6.80;;
25982;SDS011;13773;48.868;10.730;2023-07-02T07:17:15;11.03;;;6.90;;
25982;SDS011;13773;48.868;10.730;2023-07-02T07:19:40;8.90;;;6.77;;
25982;SDS011;13773;48.868;10.730;2023-07-02T07:22:06;9.10;;;7.40;;
25982;SDS011;13773;48.868;10.730;2023-07-02T07:24:32;13.90;;;8.87;;
25982;SDS011;13773;48.868;10.730;2023-07-02T07:26:57;12.00;;;7.87;;
25982;SDS011;13773;48.868;10.730;2023-07-02T07:29:23;9.77;;;8.13;;
25982;SDS011;13773;48.868;10.730;2023-07-02T07:31:49;12.87;;;8.03;;
25982;SDS011;13773;48.868;10.730;2023-07-02T07:34:15;16.83;;;9.20;;
25982;SDS011;13773;48.868;10.730;2023-07-02T07:36:40;13.57;;;9.17;;
25982;SDS011;13773;48.868;10.730;2023-07-02T07:39:06;13.57;;;8.77;;
25982;SDS011;13773;48.868;10.730;2023-07-02T07:41:32;14.93;;;8.93;;
25982;SDS011;13773;48.868;10.730;2023-07-02T07:43:57;13.17;;;8.87;;
25982;SDS011;13773;48.868;10.730;2023-07-02T07:46:23;15.07;;;9.83;;
25982;SDS011;13773;48.868;10.730;2023-07-02T07:48:49;13.90;;;9.10;;
25982;SDS011;13773;48.868;10.730;2023-07-02T07:51:14;13.17;;;8.97;;
25982;SDS011;13773;48.868;10.730;2023-07-02T07:53:41;16.30;;;9.83;;
25982;SDS011;13773;48.868;10.730;2023-07-02T07:56:07;15.73;;;9.93;;
25982;SDS011;13773;48.868;10.730;2023-07-02T07:58:33;17.23;;;9.47;;
25982;SDS011;13773;48.868;10.730;2023-07-02T08:00:59;13.27;;;9.47;;
25982;SDS011;13773;48.868;10.730;2023-07-02T08:03:25;11.80;;;9.47;;
25982;SDS011;13773;48.868;10.730;2023-07-02T08:05:51;14.63;;;9.57;;
25982;SDS011;13773;48.868;10.730;2023-07-02T08:08:18;13.10;;;9.40;;
25982;SDS011;13773;48.868;10.730;2023-07-02T08:10:44;16.37;;;10.17;;
25982;SDS011;13773;48.868;10.730;2023-07-02T08:13:11;13.07;;;9.47;;
25982;SDS011;13773;48.868;10.730;2023-07-02T08:15:38;16.17;;;10.00;;
25982;SDS011;13773;48.868;10.730;2023-07-02T08:18:03;17.23;;;10.27;;
25982;SDS011;13773;48.868;10.730;2023-07-02T08:20:31;21.00;;;9.90;;
25982;SDS011;13773;48.868;10.730;2023-07-02T08:22:57;14.87;;;10.17;;
25982;SDS011;13773;48.868;10.730;2023-07-02T08:25:23;17.33;;;9.17;;
25982;SDS011;13773;48.868;10.730;2023-07-02T08:27:50;13.03;;;9.93;;
25982;SDS011;13773;48.868;10.730;2023-07-02T08:30:16;16.43;;;9.87;;
25982;SDS011;13773;48.868;10.730;2023-07-02T08:32:42;15.03;;;9.97;;
25982;SDS011;13773;48.868;10.730;2023-07-02T08:35:08;13.27;;;9.53;;
25982;SDS011;13773;48.868;10.730;2023-07-02T08:37:33;16.87;;;9.90;;
25982;SDS011;13773;48.868;10.730;2023-07-02T08:39:59;17.20;;;9.67;;
25982;SDS011;13773;48.868;10.730;2023-07-02T08:42:24;14.50;;;9.00;;
25982;SDS011;13773;48.868;10.730;2023-07-02T08:44:54;13.70;;;9.40;;
25982;SDS011;13773;48.868;10.730;2023-07-02T08:47:22;16.33;;;10.03;;
25982;SDS011;13773;48.868;10.730;2023-07-02T08:49:48;15.87;;;11.07;;
25982;SDS011;13773;48.868;10.730;2023-07-02T08:52:14;15.90;;;10.07;;
25982;SDS011;13773;48.868;10.730;2023-07-02T08:54:41;16.63;;;10.00;;
25982;SDS011;13773;48.868;10.730;2023-07-02T08:57:08;13.27;;;9.03;;
25982;SDS011;13773;48.868;10.730;2023-07-02T08:59:35;15.80;;;10.43;;
25982;SDS011;13773;48.868;10.730;2023-07-02T09:02:01;13.37;;;10.20;;
25982;SDS011;13773;48.868;10.730;2023-07-02T09:04:27;14.07;;;9.60;;
25982;SDS011;13773;48.868;10.730;2023-07-02T09:07:03;16.67;;;10.33;;
25982;SDS011;13773;48.868;10.730;2023-07-02T09:09:33;16.97;;;9.87;;
25982;SDS011;13773;48.868;10.730;2023-07-02T09:12:10;17.03;;;10.50;;
25982;SDS011;13773;48.868;10.730;2023-07-02T09:14:46;17.17;;;10.77;;
25982;SDS011;13773;48.868;10.730;2023-07-02T09:17:30;27.67;;;10.47;;
25982;SDS011;13773;48.868;10.730;2023-07-02T09:20:00;12.30;;;8.70;;
25982;SDS011;13773;48.868;10.730;2023-07-02T09:22:29;15.63;;;9.43;;
25982;SDS011;13773;48.868;10.730;2023-07-02T09:24:56;13.47;;;9.63;;
25982;SDS011;13773;48.868;10.730;2023-07-02T09:27:39;18.13;;;9.40;;
25982;SDS011;13773;48.868;10.730;2023-07-02T09:30:06;14.27;;;9.30;;
25982;SDS011;13773;48.868;10.730;2023-07-02T09:32:33;12.30;;;8.90;;
25982;SDS011;13773;48.868;10.730;2023-07-02T09:34:59;13.80;;;9.50;;
25982;SDS011;13773;48.868;10.730;2023-07-02T09:37:25;12.03;;;9.57;;
25982;SDS011;13773;48.868;10.730;2023-07-02T09:39:51;13.00;;;10.07;;
25982;SDS011;13773;48.868;10.730;2023-07-02T09:42:20;14.00;;;9.10;;
25982;SDS011;13773;48.868;10.730;2023-07-02T09:44:47;12.97;;;9.63;;
25982;SDS011;13773;48.868;10.730;2023-07-02T09:47:17;12.50;;;9.33;;
25982;SDS011;13773;48.868;10.730;2023-07-02T09:50:02;14.17;;;9.90;;
25982;SDS011;13773;48.868;10.730;2023-07-02T09:52:30;14.50;;;9.67;;
25982;SDS011;13773;48.868;10.730;2023-07-02T09:54:58;12.87;;;9.63;;
25982;SDS011;13773;48.868;10.730;2023-07-02T09:57:24;14.57;;;9.70;;
25982;SDS011;13773;48.868;10.730;2023-07-02T09:59:50;13.80;;;9.20;;
25982;SDS011;13773;48.868;10.730;2023-07-02T10:02:16;15.23;;;9.23;;
25982;SDS011;13773;48.868;10.730;2023-07-02T10:04:43;12.07;;;8.67;;
25982;SDS011;13773;48.868;10.730;2023-07-02T10:07:10;14.60;;;9.73;;
25982;SDS011;13773;48.868;10.730;2023-07-02T10:09:43;13.00;;;9.60;;
25982;SDS011;13773;48.868;10.730;2023-07-02T10:12:19;12.80;;;9.07;;
25982;SDS011;13773;48.868;10.730;2023-07-02T10:14:47;15.83;;;9.90;;
25982;SDS011;13773;48.868;10.730;2023-07-02T10:17:27;15.53;;;9.53;;
25982;SDS011;13773;48.868;10.730;2023-07-02T10:19:58;14.37;;;9.43;;
25982;SDS011;13773;48.868;10.730;2023-07-02T10:22:49;14.97;;;9.53;;
25982;SDS011;13773;48.868;10.730;2023-07-02T10:25:25;14.10;;;9.07;;
25982;SDS011;13773;48.868;10.730;2023-07-02T10:27:52;13.13;;;9.33;;
25982;SDS011;13773;48.868;10.730;2023-07-02T10:30:18;14.50;;;9.07;;
25982;SDS011;13773;48.868;10.730;2023-07-02T10:32:55;15.80;;;9.20;;
25982;SDS011;13773;48.868;10.730;2023-07-02T10:35:32;14.20;;;9.73;;
25982;SDS011;13773;48.868;10.730;2023-07-02T10:37:59;10.53;;;8.57;;
25982;SDS011;13773;48.868;10.730;2023-07-02T10:40:24;15.63;;;9.77;;
25982;SDS011;13773;48.868;10.730;2023-07-02T10:42:51;13.30;;;8.73;;
25982;SDS011;13773;48.868;10.730;2023-07-02T10:45:18;14.33;;;9.40;;
25982;SDS011;13773;48.868;10.730;2023-07-02T10:47:46;15.40;;;9.47;;
25982;SDS011;13773;48.868;10.730;2023-07-02T10:50:19;12.13;;;9.13;;
25982;SDS011;13773;48.868;10.730;2023-07-02T10:52:46;13.67;;;9.23;;
25982;SDS011;13773;48.868;10.730;2023-07-02T10:55:18;16.13;;;9.43;;
25982;SDS011;13773;48.868;10.730;2023-07-02T10:57:45;13.70;;;9.23;;
25982;SDS011;13773;48.868;10.730;2023-07-02T11:00:13;15.90;;;9.50;;
25982;SDS011;13773;48.868;10.730;2023-07-02T11:02:39;14.80;;;9.27;;
25982;SDS011;13773;48.868;10.730;2023-07-02T11:05:06;12.93;;;9.17;;
25982;SDS011;13773;48.868;10.730;2023-07-02T11:07:37;14.00;;;9.37;;
25982;SDS011;13773;48.868;10.730;2023-07-02T11:10:06;13.97;;;10.07;;
25982;SDS011;13773;48.868;10.730;2023-07-02T11:12:33;13.07;;;9.80;;
25982;SDS011;13773;48.868;10.730;2023-07-02T11:15:09;15.83;;;10.30;;
25982;SDS011;13773;48.868;10.730;2023-07-02T11:17:35;14.50;;;9.80;;
25982;SDS011;13773;48.868;10.730;2023-07-02T11:20:01;13.33;;;9.57;;
25982;SDS011;13773;48.868;10.730;2023-07-02T11:22:33;13.27;;;9.67;;
25982;SDS011;13773;48.868;10.730;2023-07-02T11:25:12;14.63;;;9.80;;
25982;SDS011;13773;48.868;10.730;2023-07-02T11:27:39;16.50;;;10.63;;
25982;SDS011;13773;48.868;10.730;2023-07-02T11:30:05;15.30;;;9.93;;
25982;SDS011;13773;48.868;10.730;2023-07-02T11:32:31;13.57;;;9.93;;
25982;SDS011;13773;48.868;10.730;2023-07-02T11:35:01;12.70;;;8.83;;
25982;SDS011;13773;48.868;10.730;2023-07-02T11:37:27;12.60;;;8.90;;
25982;SDS011;13773;48.868;10.730;2023-07-02T11:39:53;13.60;;;9.53;;
25982;SDS011;13773;48.868;10.730;2023-07-02T11:42:19;13.27;;;9.97;;
25982;SDS011;13773;48.868;10.730;2023-07-02T11:44:46;14.07;;;10.97;;
25982;SDS011;13773;48.868;10.730;2023-07-02T11:47:12;12.43;;;9.83;;
25982;SDS011;13773;48.868;10.730;2023-07-02T11:49:37;16.03;;;10.17;;
25982;SDS011;13773;48.868;10.730;2023-07-02T11:52:03;12.97;;;9.50;;
25982;SDS011;13773;48.868;10.730;2023-07-02T11:54:29;11.37;;;9.80;;
25982;SDS011;13773;48.868;10.730;2023-07-02T11:56:56;13.13;;;9.93;;
25982;SDS011;13773;48.868;10.730;2023-07-02T11:59:22;12.13;;;9.37;;
25982;SDS011;13773;48.868;10.730;2023-07-02T12:01:48;14.47;;;10.00;;
25982;SDS011;13773;48.868;10.730;2023-07-02T12:04:13;12.90;;;10.43;;
25982;SDS011;13773;48.868;10.730;2023-07-02T12:06:39;14.00;;;9.10;;
25982;SDS011;13773;48.868;10.730;2023-07-02T12:09:05;15.43;;;10.10;;
25982;SDS011;13773;48.868;10.730;2023-07-02T12:11:30;17.27;;;10.03;;
25982;SDS011;13773;48.868;10.730;2023-07-02T12:13:56;16.70;;;10.43;;
25982;SDS011;13773;48.868;10.730;2023-07-02T12:16:22;11.83;;;9.93;;
25982;SDS011;13773;48.868;10.730;2023-07-02T12:18:47;15.23;;;10.07;;
25982;SDS011;13773;48.868;10.730;2023-07-02T12:21:13;13.00;;;10.10;;
25982;SDS011;13773;48.868;10.730;2023-07-02T12:23:39;12.43;;;8.77;;
25982;SDS011;13773;48.868;10.730;2023-07-02T12:26:06;13.17;;;9.53;;
25982;SDS011;13773;48.868;10.730;2023-07-02T12:28:31;11.73;;;9.23;;
25982;SDS011;13773;48.868;10.730;2023-07-02T12:30:57;12.13;;;9.23;;
25982;SDS011;13773;48.868;10.730;2023-07-02T12:33:22;12.47;;;9.63;;
25982;SDS011;13773;48.868;10.730;2023-07-02T12:35:48;11.13;;;9.77;;
25982;SDS011;13773;48.868;10.730;2023-07-02T12:38:14;14.17;;;9.57;;
25982;SDS011;13773;48.868;10.730;2023-07-02T12:40:39;12.37;;;10.13;;
25982;SDS011;13773;48.868;10.730;2023-07-02T12:43:05;14.10;;;10.33;;
25982;SDS011;13773;48.868;10.730;2023-07-02T12:45:31;14.13;;;10.00;;
25982;SDS011;13773;48.868;10.730;2023-07-02T12:47:56;12.63;;;10.43;;
25982;SDS011;13773;48.868;10.730;2023-07-02T12:50:24;13.07;;;10.20;;
25982;SDS011;13773;48.868;10.730;2023-07-02T12:52:50;13.23;;;10.07;;
25982;SDS011;13773;48.868;10.730;2023-07-02T12:55:15;12.93;;;10.20;;
25982;SDS011;13773;48.868;10.730;2023-07-02T12:57:41;12.23;;;10.80;;
25982;SDS011;13773;48.868;10.730;2023-07-02T13:00:07;12.03;;;9.43;;
25982;SDS011;13773;48.868;10.730;2023-07-02T13:02:34;13.43;;;10.87;;
25982;SDS011;13773;48.868;10.730;2023-07-02T13:05:00;13.20;;;10.50;;
25982;SDS011;13773;48.868;10.730;2023-07-02T13:07:26;12.70;;;10.57;;
25982;SDS011;13773;48.868;10.730;2023-07-02T13:09:52;16.70;;;11.00;;
25982;SDS011;13773;48.868;10.730;2023-07-02T13:12:18;15.00;;;11.60;;
25982;SDS011;13773;48.868;10.730;2023-07-02T13:14:44;15.60;;;12.00;;
25982;SDS011;13773;48.868;10.730;2023-07-02T13:17:10;15.87;;;11.37;;
25982;SDS011;13773;48.868;10.730;2023-07-02T13:19:35;15.70;;;12.03;;
25982;SDS011;13773;48.868;10.730;2023-07-02T13:22:01;14.57;;;11.17;;
25982;SDS011;13773;48.868;10.730;2023-07-02T13:24:28;15.33;;;11.60;;
25982;SDS011;13773;48.868;10.730;2023-07-02T13:27:00;16.83;;;11.90;;
25982;SDS011;13773;48.868;10.730;2023-07-02T13:29:29;15.90;;;11.53;;
25982;SDS011;13773;48.868;10.730;2023-07-02T13:31:56;16.67;;;11.87;;
25982;SDS011;13773;48.868;10.730;2023-07-02T13:34:21;14.93;;;11.70;;
25982;SDS011;13773;48.868;10.730;2023-07-02T13:36:47;14.45;;;11.80;;
25982;SDS011;13773;48.868;10.730;2023-07-02T13:39:12;15.27;;;11.55;;
25982;SDS011;13773;48.868;10.730;2023-07-02T13:41:38;17.93;;;12.30;;
25982;SDS011;13773;48.868;10.730;2023-07-02T13:44:05;15.70;;;12.00;;
25982;SDS011;13773;48.868;10.730;2023-07-02T13:46:31;14.20;;;11.63;;
25982;SDS011;13773;48.868;10.730;2023-07-02T13:48:57;16.63;;;12.00;;
25982;SDS011;13773;48.868;10.730;2023-07-02T13:51:22;14.37;;;11.50;;
25982;SDS011;13773;48.868;10.730;2023-07-02T13:53:48;15.07;;;11.57;;
25982;SDS011;13773;48.868;10.730;2023-07-02T13:56:14;15.80;;;12.77;;
25982;SDS011;13773;48.868;10.730;2023-07-02T13:59:14;14.17;;;12.63;;
25982;SDS011;13773;48.868;10.730;2023-07-02T14:01:33;20.53;;;13.47;;
25982;SDS011;13773;48.868;10.730;2023-07-02T14:03:59;15.97;;;12.10;;
25982;SDS011;13773;48.868;10.730;2023-07-02T14:06:25;16.60;;;11.97;;
25982;SDS011;13773;48.868;10.730;2023-07-02T14:08:51;16.80;;;12.30;;
25982;SDS011;13773;48.868;10.730;2023-07-02T14:11:17;15.87;;;13.07;;
25982;SDS011;13773;48.868;10.730;2023-07-02T14:13:43;16.70;;;11.60;;
25982;SDS011;13773;48.868;10.730;2023-07-02T14:16:09;15.67;;;13.13;;
25982;SDS011;13773;48.868;10.730;2023-07-02T14:18:34;19.07;;;12.73;;
25982;SDS011;13773;48.868;10.730;2023-07-02T14:21:00;17.50;;;12.63;;
25982;SDS011;13773;48.868;10.730;2023-07-02T14:23:28;16.13;;;12.30;;
25982;SDS011;13773;48.868;10.730;2023-07-02T14:25:53;17.47;;;12.10;;